Time;durP1;ratioP1;P1;durP2;ratioP2;P2;SDS_P1;SDS_P2;PMS_P1;PMS_P2;Temp;Humidity;BMP_temperature;BMP_pressure;BME280_temperature;BME280_humidity;BME280_pressure;Samples;Min_cycle;Max_cycle;Signal;HPM_P1;HPM_P2
2021/07/10 00:00:33;;;;;;;0.40;0.20;;;;;;;16.86;100.00;100626.66;5038875;28;20498;-80
2021/07/10 00:03:00;;;;;;;0.40;0.20;;;;;;;16.98;100.00;100621.63;5040569;28;20571;-80
2021/07/10 00:05:27;;;;;;;0.43;0.30;;;;;;;17.03;100.00;100611.53;5039139;28;20471;-80
2021/07/10 00:07:53;;;;;;;0.40;0.20;;;;;;;17.13;100.00;100628.91;5040333;28;20452;-81
2021/07/10 00:10:20;;;;;;;0.40;0.20;;;;;;;17.20;100.00;100616.03;5039775;28;20456;-81
2021/07/10 00:12:47;;;;;;;1.03;0.50;;;;;;;17.21;100.00;100617.78;5034659;28;20460;-82
2021/07/10 00:15:17;;;;;;;0.40;0.40;;;;;;;17.07;100.00;100608.59;5039357;28;20476;-81
2021/07/10 00:17:44;;;;;;;0.40;0.30;;;;;;;16.73;100.00;100612.09;5040783;28;20460;-82
2021/07/10 00:20:12;;;;;;;0.40;0.20;;;;;;;16.62;100.00;100603.66;5040743;28;20486;-82
2021/07/10 00:22:41;;;;;;;0.40;0.20;;;;;;;16.67;100.00;100595.38;5039697;28;20455;-82
2021/07/10 00:25:10;;;;;;;0.40;0.20;;;;;;;16.92;100.00;100608.50;5045595;28;20475;-81
2021/07/10 00:27:39;;;;;;;0.47;0.37;;;;;;;16.87;100.00;100603.38;5039412;28;20422;-82
2021/07/10 00:30:07;;;;;;;0.40;0.20;;;;;;;16.82;100.00;100598.22;5038285;28;20462;-81
2021/07/10 00:32:34;;;;;;;0.40;0.30;;;;;;;16.82;100.00;100600.03;5050135;28;20463;-82
2021/07/10 00:35:02;;;;;;;0.50;0.43;;;;;;;16.84;100.00;100604.38;5040817;28;20451;-83
2021/07/10 00:37:28;;;;;;;0.60;0.60;;;;;;;16.62;100.00;100600.97;5040636;28;20472;-82
2021/07/10 00:39:55;;;;;;;0.40;0.30;;;;;;;16.52;100.00;100597.84;5039064;28;20456;-82
2021/07/10 00:42:22;;;;;;;0.40;0.20;;;;;;;16.44;100.00;100569.66;5040832;28;20459;-82
2021/07/10 00:44:49;;;;;;;4.10;1.07;;;;;;;16.63;100.00;100608.09;5038525;28;20579;-82
2021/07/10 00:47:17;;;;;;;0.40;0.20;;;;;;;16.43;100.00;100610.84;5041188;28;20426;-81
2021/07/10 00:49:44;;;;;;;0.50;0.40;;;;;;;16.51;100.00;100614.03;5040219;28;20459;-82
2021/07/10 00:52:10;;;;;;;0.40;0.30;;;;;;;16.46;100.00;100603.53;5039165;28;20437;-82
2021/07/10 00:54:37;;;;;;;0.50;0.30;;;;;;;16.42;100.00;100598.38;5039966;28;20430;-81
2021/07/10 00:57:07;;;;;;;0.50;0.37;;;;;;;16.34;100.00;100592.53;5041959;28;20479;-82
2021/07/10 00:59:35;;;;;;;0.40;0.20;;;;;;;16.20;100.00;100595.84;5040048;28;20459;-81
2021/07/10 01:02:02;;;;;;;1.30;1.30;;;;;;;16.11;100.00;100586.41;5043073;28;20454;-81
2021/07/10 01:04:29;;;;;;;0.40;0.30;;;;;;;16.23;100.00;100598.38;5056171;28;20547;-81
2021/07/10 01:06:55;;;;;;;0.40;0.20;;;;;;;16.03;100.00;100587.69;5056697;28;20460;-81
2021/07/10 01:09:22;;;;;;;0.40;0.30;;;;;;;15.97;100.00;100583.50;5053868;28;20475;-79
2021/07/10 01:11:50;;;;;;;0.87;0.87;;;;;;;16.05;100.00;100575.97;5054678;28;20452;-81
2021/07/10 01:14:16;;;;;;;0.40;0.20;;;;;;;15.95;100.00;100580.88;5054883;28;20455;-82
2021/07/10 01:16:43;;;;;;;0.40;0.20;;;;;;;15.95;100.00;100572.84;5054422;28;20480;-82
2021/07/10 01:19:10;;;;;;;0.40;0.30;;;;;;;15.96;100.00;100568.34;5041906;28;20527;-83
2021/07/10 01:21:38;;;;;;;0.40;0.30;;;;;;;15.84;100.00;100567.09;5041571;28;20509;-81
2021/07/10 01:24:05;;;;;;;0.40;0.20;;;;;;;16.04;100.00;100566.19;5033397;28;20491;-82
2021/07/10 01:26:31;;;;;;;0.40;0.20;;;;;;;15.98;100.00;100563.78;5033120;28;20918;-81
2021/07/10 01:28:58;;;;;;;0.40;0.20;;;;;;;15.89;100.00;100554.34;5034109;28;20463;-82
2021/07/10 01:31:25;;;;;;;1.03;0.93;;;;;;;16.02;100.00;100564.50;5033903;28;20491;-82
2021/07/10 01:33:53;;;;;;;2.00;1.80;;;;;;;15.88;100.00;100567.81;5033606;28;20486;-81
2021/07/10 01:36:20;;;;;;;0.40;0.20;;;;;;;15.81;100.00;100552.97;5034473;28;21006;-81
2021/07/10 01:38:47;;;;;;;0.40;0.30;;;;;;;16.02;100.00;100561.81;5033665;28;20448;-81
2021/07/10 01:41:13;;;;;;;0.60;0.50;;;;;;;16.06;100.00;100564.31;5034255;28;20844;-81
2021/07/10 01:43:40;;;;;;;0.40;0.30;;;;;;;15.95;100.00;100561.25;5034695;28;20494;-80
2021/07/10 01:46:06;;;;;;;0.40;0.20;;;;;;;16.04;100.00;100558.16;5029313;28;20463;-81
2021/07/10 01:48:33;;;;;;;1.17;0.47;;;;;;;15.96;100.00;100553.13;5033587;28;20787;-80
2021/07/10 01:51:00;;;;;;;0.40;0.20;;;;;;;15.89;100.00;100540.06;5031217;28;20452;-81
2021/07/10 01:53:26;;;;;;;0.80;0.80;;;;;;;15.63;100.00;100552.00;5033866;28;20869;-81
2021/07/10 01:55:53;;;;;;;0.40;0.30;;;;;;;15.59;100.00;100550.34;5032291;28;20480;-80
2021/07/10 01:58:20;;;;;;;0.57;0.57;;;;;;;15.59;100.00;100545.00;5034220;28;20455;-81
2021/07/10 02:00:47;;;;;;;1.63;0.73;;;;;;;15.52;100.00;100547.09;5033455;28;20463;-80
2021/07/10 02:03:14;;;;;;;0.40;0.20;;;;;;;15.42;100.00;100553.78;5034896;28;20484;-81
2021/07/10 02:05:41;;;;;;;1.07;0.93;;;;;;;15.39;100.00;100543.22;5033454;28;20475;-80
2021/07/10 02:08:09;;;;;;;0.40;0.20;;;;;;;15.25;100.00;100537.59;5034253;28;20459;-82
2021/07/10 02:10:36;;;;;;;0.43;0.27;;;;;;;15.16;100.00;100535.31;5035710;28;20434;-82
2021/07/10 02:13:07;;;;;;;0.50;0.30;;;;;;;15.07;100.00;100544.59;5035702;28;20475;-82
2021/07/10 02:15:35;;;;;;;0.50;0.30;;;;;;;15.10;100.00;100552.53;5035737;28;20494;-82
2021/07/10 02:18:02;;;;;;;0.60;0.60;;;;;;;14.94;100.00;100520.19;5034547;28;20494;-80
2021/07/10 02:20:29;;;;;;;0.40;0.20;;;;;;;15.05;100.00;100549.16;5036401;28;20439;-81
2021/07/10 02:22:57;;;;;;;0.60;0.60;;;;;;;15.06;100.00;100557.13;5036612;28;20430;-81
2021/07/10 02:25:25;;;;;;;0.40;0.20;;;;;;;15.14;100.00;100558.63;5040052;28;20482;-81
2021/07/10 02:27:53;;;;;;;0.83;0.83;;;;;;;15.03;100.00;100551.91;5038464;28;20451;-81
2021/07/10 02:30:26;;;;;;;0.40;0.20;;;;;;;15.11;100.00;100555.16;5034543;28;20876;-82
2021/07/10 02:32:55;;;;;;;0.40;0.20;;;;;;;14.84;100.00;100520.66;5036650;28;20462;-81
2021/07/10 02:35:26;;;;;;;0.50;0.47;;;;;;;14.79;100.00;100510.97;5036380;28;20540;-82
2021/07/10 02:37:53;;;;;;;0.40;0.20;;;;;;;14.97;100.00;100512.03;5038467;28;20494;-81
2021/07/10 02:40:20;;;;;;;0.40;0.30;;;;;;;15.15;100.00;100547.84;5036203;28;20530;-80
2021/07/10 02:42:48;;;;;;;0.40;0.30;;;;;;;15.28;100.00;100541.00;5035823;28;20477;-80
2021/07/10 02:45:16;;;;;;;0.40;0.30;;;;;;;15.32;100.00;100537.25;5035310;28;20495;-80
2021/07/10 02:47:43;;;;;;;0.87;0.87;;;;;;;15.36;100.00;100541.56;5037813;28;20456;-80
2021/07/10 02:50:13;;;;;;;0.40;0.40;;;;;;;15.32;100.00;100523.00;5040001;28;20452;-81
2021/07/10 02:52:40;;;;;;;0.40;0.20;;;;;;;15.25;100.00;100524.22;5035668;28;20956;-81
2021/07/10 02:55:07;;;;;;;0.40;0.20;;;;;;;14.94;100.00;100527.31;5039542;28;20510;-81
2021/07/10 02:57:34;;;;;;;0.40;0.20;;;;;;;14.79;100.00;100512.78;5047835;28;20466;-81
2021/07/10 03:00:08;;;;;;;0.40;0.20;;;;;;;14.55;100.00;100512.03;5055422;28;20453;-80
2021/07/10 03:02:35;;;;;;;0.40;0.30;;;;;;;14.70;100.00;100522.09;5054577;28;20468;-81
2021/07/10 03:05:04;;;;;;;0.40;0.20;;;;;;;14.76;100.00;100515.59;5054423;28;20495;-80
2021/07/10 03:07:32;;;;;;;2.20;2.10;;;;;;;14.88;100.00;100514.22;5053249;28;20482;-81
2021/07/10 03:09:59;;;;;;;0.40;0.20;;;;;;;14.79;100.00;100508.31;5055060;28;20482;-80
2021/07/10 03:12:25;;;;;;;0.40;0.20;;;;;;;14.77;100.00;100506.63;5054262;28;20528;-81
2021/07/10 03:14:52;;;;;;;0.40;0.20;;;;;;;14.94;100.00;100519.28;5051208;28;20447;-82
2021/07/10 03:17:22;;;;;;;0.50;0.40;;;;;;;14.78;100.00;100503.03;5054491;28;20447;-81
2021/07/10 03:19:49;;;;;;;0.40;0.20;;;;;;;14.68;100.00;100507.91;5054436;28;20482;-81
2021/07/10 03:22:15;;;;;;;0.50;0.50;;;;;;;14.85;100.00;100520.59;5052902;28;20462;-80
2021/07/10 03:24:42;;;;;;;1.23;1.23;;;;;;;14.57;100.00;100514.66;5061412;28;20487;-80
2021/07/10 03:27:10;;;;;;;0.40;0.20;;;;;;;14.38;100.00;100507.31;5053459;28;20536;-81
2021/07/10 03:29:37;;;;;;;0.40;0.20;;;;;;;14.49;100.00;100513.13;5056610;28;20474;-80
2021/07/10 03:32:04;;;;;;;0.40;0.20;;;;;;;14.49;100.00;100493.53;5062943;28;20509;-81
2021/07/10 03:34:30;;;;;;;1.37;1.33;;;;;;;14.54;100.00;100504.06;5055765;28;20485;-80
2021/07/10 03:36:57;;;;;;;0.40;0.20;;;;;;;14.44;100.00;100504.44;5058933;28;20486;-81
2021/07/10 03:39:25;;;;;;;0.60;0.60;;;;;;;14.68;100.00;100504.38;5053860;28;20444;-82
2021/07/10 03:41:52;;;;;;;0.40;0.30;;;;;;;14.74;100.00;100509.44;5054865;28;20444;-81
2021/07/10 03:44:18;;;;;;;0.40;0.20;;;;;;;14.65;100.00;100507.16;5054188;28;20529;-80
2021/07/10 03:46:46;;;;;;;0.53;0.53;;;;;;;14.47;100.00;100506.13;5044939;28;20807;-82
2021/07/10 03:49:13;;;;;;;0.40;0.20;;;;;;;14.57;100.00;100504.81;5054040;28;20456;-80
2021/07/10 03:51:40;;;;;;;0.60;0.60;;;;;;;14.48;100.00;100510.53;5052801;28;20434;-81
2021/07/10 03:54:07;;;;;;;0.40;0.20;;;;;;;14.58;100.00;100508.34;5054015;28;20452;-82
2021/07/10 03:56:33;;;;;;;0.80;0.80;;;;;;;14.55;100.00;100505.81;5054197;28;20479;-81
2021/07/10 03:59:00;;;;;;;0.40;0.20;;;;;;;14.69;100.00;100504.31;5054362;28;20444;-83
2021/07/10 04:01:27;;;;;;;0.40;0.30;;;;;;;14.60;100.00;100498.47;5057351;28;20527;-82
2021/07/10 04:03:53;;;;;;;0.40;0.20;;;;;;;14.79;100.00;100500.28;5051391;28;20561;-82
2021/07/10 04:06:20;;;;;;;0.50;0.47;;;;;;;14.90;100.00;100507.00;5052078;28;20476;-82
2021/07/10 04:08:47;;;;;;;0.40;0.20;;;;;;;14.70;100.00;100491.78;5052626;28;20456;-82
2021/07/10 04:11:14;;;;;;;0.50;0.30;;;;;;;14.63;100.00;100496.50;5051415;28;20456;-83
2021/07/10 04:13:40;;;;;;;0.40;0.30;;;;;;;14.78;100.00;100506.56;5050272;28;20456;-81
2021/07/10 04:16:07;;;;;;;0.40;0.20;;;;;;;14.78;100.00;100481.63;5049420;28;20471;-82
2021/07/10 04:18:34;;;;;;;0.40;0.30;;;;;;;15.01;100.00;100491.34;5047725;28;20444;-83
2021/07/10 04:21:01;;;;;;;0.40;0.20;;;;;;;15.13;100.00;100497.97;5048093;28;20427;-81
2021/07/10 04:23:27;;;;;;;0.67;0.67;;;;;;;15.26;100.00;100502.72;5054022;28;20430;-82
2021/07/10 04:25:54;;;;;;;0.53;0.53;;;;;;;15.23;100.00;100496.63;5046805;28;20495;-82
2021/07/10 04:28:21;;;;;;;0.40;0.20;;;;;;;15.30;100.00;100485.56;5048554;28;20455;-82
2021/07/10 04:30:47;;;;;;;0.40;0.20;;;;;;;15.13;100.00;100495.28;5048030;28;20455;-82
2021/07/10 04:33:14;;;;;;;0.40;0.20;;;;;;;15.13;100.00;100493.47;5046691;28;20521;-82
2021/07/10 04:35:41;;;;;;;0.63;0.63;;;;;;;15.27;100.00;100501.78;5046486;28;20494;-82
2021/07/10 04:38:08;;;;;;;0.40;0.20;;;;;;;15.32;100.00;100494.41;5042500;28;20862;-82
2021/07/10 04:40:35;;;;;;;0.40;0.20;;;;;;;15.25;100.00;100476.00;5041388;28;20456;-82
2021/07/10 04:43:03;;;;;;;0.40;0.30;;;;;;;15.49;100.00;100495.44;5041880;28;20514;-81
2021/07/10 04:45:29;;;;;;;4.10;1.90;;;;;;;15.45;100.00;100505.44;5041229;28;20494;-82
2021/07/10 04:47:56;;;;;;;0.40;0.20;;;;;;;15.53;100.00;100497.94;5040982;28;20544;-83
2021/07/10 04:50:23;;;;;;;0.50;0.30;;;;;;;15.62;100.00;100491.28;5035071;28;20469;-82
2021/07/10 04:52:50;;;;;;;0.40;0.20;;;;;;;15.90;100.00;100491.78;5040212;28;20434;-82
2021/07/10 04:55:17;;;;;;;0.40;0.20;;;;;;;15.77;100.00;100495.09;5041780;28;20487;-84
2021/07/10 04:57:45;;;;;;;0.40;0.20;;;;;;;15.43;100.00;100493.06;5041605;28;20834;-81
2021/07/10 05:00:13;;;;;;;0.40;0.20;;;;;;;15.63;100.00;100499.28;5040889;28;20447;-82
2021/07/10 05:02:43;;;;;;;0.40;0.30;;;;;;;15.72;100.00;100497.97;5042254;28;20518;-82
2021/07/10 05:05:11;;;;;;;0.87;0.87;;;;;;;15.78;100.00;100502.19;5040841;28;20947;-81
2021/07/10 05:07:41;;;;;;;0.73;0.73;;;;;;;15.84;100.00;100491.19;5033294;28;20879;-81
2021/07/10 05:10:08;;;;;;;0.40;0.20;;;;;;;15.68;100.00;100499.94;5040132;28;20456;-81
2021/07/10 05:12:35;;;;;;;0.40;0.20;;;;;;;15.61;100.00;100478.84;5039738;28;20437;-81
2021/07/10 05:15:03;;;;;;;0.50;0.30;;;;;;;15.97;100.00;100486.97;5041689;28;20479;-82
2021/07/10 05:17:29;;;;;;;0.40;0.20;;;;;;;15.97;100.00;100481.59;5038821;28;20463;-82
2021/07/10 05:19:56;;;;;;;0.47;0.30;;;;;;;16.12;100.00;100496.97;5040507;28;20861;-81
2021/07/10 05:22:23;;;;;;;1.83;1.73;;;;;;;16.11;100.00;100497.03;5040617;28;20478;-84
2021/07/10 05:24:49;;;;;;;0.50;0.50;;;;;;;16.05;100.00;100489.31;5044393;28;20490;-84
2021/07/10 05:27:16;;;;;;;0.40;0.20;;;;;;;16.06;100.00;100491.91;5047258;28;20455;-83
2021/07/10 05:29:43;;;;;;;0.40;0.20;;;;;;;16.11;100.00;100489.00;5044626;28;20474;-84
2021/07/10 05:32:10;;;;;;;3.13;2.93;;;;;;;16.20;100.00;100485.88;5041408;28;20467;-81
2021/07/10 05:34:36;;;;;;;0.40;0.20;;;;;;;16.15;100.00;100490.56;5041642;28;20621;-81
2021/07/10 05:37:03;;;;;;;0.50;0.40;;;;;;;16.13;100.00;100489.78;5042663;28;20965;-82
2021/07/10 05:39:30;;;;;;;0.93;0.93;;;;;;;15.94;100.00;100492.47;5043727;28;20422;-82
2021/07/10 05:41:57;;;;;;;1.40;1.30;;;;;;;15.96;100.00;100493.28;5045508;28;20448;-81
2021/07/10 05:44:25;;;;;;;0.50;0.50;;;;;;;16.27;100.00;100493.53;5043863;28;20463;-81
2021/07/10 05:46:51;;;;;;;0.40;0.30;;;;;;;16.17;100.00;100491.38;5043742;28;20479;-82
2021/07/10 05:49:19;;;;;;;0.40;0.30;;;;;;;16.34;100.00;100498.63;5040199;28;20535;-80
2021/07/10 05:51:45;;;;;;;0.40;0.33;;;;;;;16.33;100.00;100486.16;5039973;28;20455;-81
2021/07/10 05:54:12;;;;;;;0.40;0.30;;;;;;;16.13;100.00;100492.47;5036407;28;20452;-81
2021/07/10 05:56:43;;;;;;;0.53;0.53;;;;;;;16.24;100.00;100509.78;5033520;28;21007;-82
2021/07/10 05:59:10;;;;;;;0.40;0.30;;;;;;;16.41;100.00;100494.66;5033338;28;20460;-81
2021/07/10 06:01:37;;;;;;;0.40;0.20;;;;;;;16.50;100.00;100503.16;5028532;28;20471;-86
2021/07/10 06:04:04;;;;;;;1.33;1.07;;;;;;;16.35;100.00;100477.06;5034703;28;20525;-80
2021/07/10 06:06:30;;;;;;;0.73;0.70;;;;;;;17.00;100.00;100504.25;5033065;28;20543;-80
2021/07/10 06:08:57;;;;;;;0.40;0.20;;;;;;;17.23;100.00;100498.53;5036123;28;20456;-79
2021/07/10 06:11:24;;;;;;;0.40;0.23;;;;;;;17.30;100.00;100499.97;5034924;28;20460;-80
2021/07/10 06:13:51;;;;;;;0.50;0.50;;;;;;;17.36;100.00;100498.75;5036344;28;20480;-80
2021/07/10 06:16:18;;;;;;;0.40;0.20;;;;;;;17.46;100.00;100498.19;5032711;28;20487;-80
2021/07/10 06:18:44;;;;;;;0.93;0.90;;;;;;;17.50;100.00;100498.88;5033971;28;20456;-79
2021/07/10 06:21:11;;;;;;;0.40;0.20;;;;;;;17.28;100.00;100488.44;5036476;28;20513;-81
2021/07/10 06:23:39;;;;;;;0.40;0.30;;;;;;;17.32;100.00;100483.75;5040779;28;20413;-81
2021/07/10 06:26:05;;;;;;;0.50;0.50;;;;;;;17.26;100.00;100489.44;5045764;28;20496;-81
2021/07/10 06:28:32;;;;;;;0.93;0.77;;;;;;;17.53;100.00;100485.28;5035779;28;20911;-81
2021/07/10 06:30:59;;;;;;;1.40;1.40;;;;;;;17.80;100.00;100464.09;5036665;28;20455;-81
2021/07/10 06:33:25;;;;;;;1.37;1.27;;;;;;;18.32;100.00;100480.88;5035306;28;20463;-81
2021/07/10 06:35:52;;;;;;;6.13;0.80;;;;;;;18.54;100.00;100491.25;5036229;28;20457;-81
2021/07/10 06:38:19;;;;;;;0.50;0.40;;;;;;;18.16;100.00;100484.53;5035784;28;20434;-81
2021/07/10 06:40:45;;;;;;;0.40;0.30;;;;;;;17.91;100.00;100485.91;5036115;28;20509;-81
2021/07/10 06:43:14;;;;;;;0.50;0.40;;;;;;;18.02;100.00;100488.84;5035787;28;20462;-81
2021/07/10 06:45:40;;;;;;;0.40;0.20;;;;;;;18.11;100.00;100482.09;5035523;28;20572;-81
2021/07/10 06:48:07;;;;;;;0.90;0.90;;;;;;;18.07;100.00;100485.91;5035884;28;20539;-81
2021/07/10 06:50:34;;;;;;;0.40;0.30;;;;;;;18.12;100.00;100481.16;5036211;28;20939;-81
2021/07/10 06:53:01;;;;;;;6.90;3.73;;;;;;;17.85;100.00;100485.38;5035977;28;20505;-81
2021/07/10 06:55:27;;;;;;;2.03;2.00;;;;;;;17.88;100.00;100474.44;5035043;28;20533;-81
2021/07/10 06:57:54;;;;;;;0.40;0.30;;;;;;;17.93;100.00;100484.00;5037640;28;20459;-82
2021/07/10 07:00:21;;;;;;;0.40;0.30;;;;;;;18.13;100.00;100482.00;5044095;28;20433;-81
2021/07/10 07:02:47;;;;;;;0.40;0.40;;;;;;;18.16;100.00;100476.44;5050974;28;20484;-81
2021/07/10 07:05:14;;;;;;;5.03;3.10;;;;;;;18.21;100.00;100479.75;5051127;28;20504;-81
2021/07/10 07:07:41;;;;;;;2.80;2.03;;;;;;;18.14;100.00;100486.44;5036691;28;20880;-81
2021/07/10 07:10:10;;;;;;;2.70;0.50;;;;;;;18.46;100.00;100482.75;5052177;28;20418;-81
2021/07/10 07:12:37;;;;;;;0.40;0.30;;;;;;;18.59;100.00;100477.53;5032228;28;20506;-81
2021/07/10 07:15:06;;;;;;;1.40;1.30;;;;;;;18.82;100.00;100479.78;5031871;28;20471;-81
2021/07/10 07:17:32;;;;;;;1.63;1.37;;;;;;;18.90;100.00;100479.28;5030420;28;20440;-82
2021/07/10 07:19:59;;;;;;;0.57;0.57;;;;;;;19.30;100.00;100475.03;5030349;28;20426;-81
2021/07/10 07:22:26;;;;;;;0.47;0.30;;;;;;;19.58;100.00;100479.63;5032220;28;20513;-81
2021/07/10 07:24:53;;;;;;;0.40;0.30;;;;;;;19.60;100.00;100477.72;5045597;28;20472;-81
2021/07/10 07:27:19;;;;;;;0.50;0.30;;;;;;;19.80;100.00;100465.66;5032438;28;20456;-81
2021/07/10 07:29:46;;;;;;;1.90;0.70;;;;;;;20.06;100.00;100445.06;5032103;28;20480;-81
2021/07/10 07:32:14;;;;;;;1.17;1.17;;;;;;;20.60;100.00;100454.06;5030949;28;20498;-81
2021/07/10 07:34:41;;;;;;;0.40;0.20;;;;;;;20.53;100.00;100449.19;5033073;28;20505;-80
2021/07/10 07:37:08;;;;;;;0.50;0.30;;;;;;;20.67;100.00;100449.09;5035140;28;20446;-81
2021/07/10 07:39:34;;;;;;;0.83;0.83;;;;;;;20.94;100.00;100447.22;5035916;28;20443;-81
2021/07/10 07:42:01;;;;;;;0.40;0.30;;;;;;;21.14;100.00;100440.44;5051506;28;20451;-81
2021/07/10 07:44:32;;;;;;;0.40;0.20;;;;;;;20.94;100.00;100443.66;5038212;28;20525;-81
2021/07/10 07:46:59;;;;;;;0.50;0.40;;;;;;;21.86;98.32;100448.84;5039413;28;20476;-81
2021/07/10 07:49:26;;;;;;;0.50;0.40;;;;;;;21.79;96.79;100442.13;5055635;28;20440;-81
2021/07/10 07:51:52;;;;;;;0.50;0.30;;;;;;;21.31;98.60;100433.00;5039980;28;20816;-81
2021/07/10 07:54:20;;;;;;;0.50;0.40;;;;;;;20.98;100.00;100439.78;5038347;28;20546;-81
2021/07/10 07:56:47;;;;;;;0.40;0.20;;;;;;;21.78;98.80;100441.28;5053221;28;20445;-82
2021/07/10 07:59:13;;;;;;;0.40;0.30;;;;;;;22.52;95.50;100434.00;5047592;28;20519;-81
2021/07/10 08:01:40;;;;;;;0.70;0.70;;;;;;;22.20;95.64;100433.69;5054153;28;20940;-81
2021/07/10 08:04:07;;;;;;;0.80;0.80;;;;;;;22.12;96.11;100425.31;5037865;28;20430;-81
2021/07/10 08:06:33;;;;;;;0.73;0.70;;;;;;;22.14;96.05;100421.50;5038633;28;20492;-81
2021/07/10 08:09:00;;;;;;;0.73;0.73;;;;;;;21.89;97.23;100417.00;5038622;28;20448;-81
2021/07/10 08:11:27;;;;;;;2.20;0.50;;;;;;;22.09;96.02;100404.75;5038276;28;20460;-81
2021/07/10 08:13:54;;;;;;;0.50;0.40;;;;;;;22.43;95.12;100418.44;5037871;28;20473;-81
2021/07/10 08:16:20;;;;;;;0.50;0.40;;;;;;;22.27;95.09;100412.44;5038154;28;20446;-81
2021/07/10 08:18:47;;;;;;;1.03;0.93;;;;;;;22.18;95.48;100412.16;5038084;28;20883;-81
2021/07/10 08:21:14;;;;;;;0.50;0.30;;;;;;;22.64;93.60;100416.81;5038073;28;20447;-81
2021/07/10 08:23:41;;;;;;;0.70;0.60;;;;;;;22.85;91.86;100408.88;5042423;28;20418;-81
2021/07/10 08:26:07;;;;;;;0.40;0.30;;;;;;;22.91;92.92;100413.84;5046580;28;20470;-82
2021/07/10 08:28:34;;;;;;;0.40;0.30;;;;;;;23.39;91.92;100407.38;5036684;28;20422;-81
2021/07/10 08:31:02;;;;;;;0.50;0.30;;;;;;;23.18;90.47;100412.66;5038453;28;20467;-81
2021/07/10 08:33:30;;;;;;;0.40;0.23;;;;;;;23.29;90.13;100408.09;5036606;28;20484;-81
2021/07/10 08:35:56;;;;;;;3.20;1.17;;;;;;;23.37;88.25;100410.22;5038191;28;20468;-82
2021/07/10 08:38:23;;;;;;;0.50;0.40;;;;;;;23.01;89.52;100400.41;5036326;28;20448;-81
2021/07/10 08:40:51;;;;;;;2.07;1.90;;;;;;;23.46;89.48;100403.19;5053097;28;20797;-81
2021/07/10 08:43:19;;;;;;;0.40;0.30;;;;;;;22.64;90.88;100405.97;5053400;28;20512;-81
2021/07/10 08:45:49;;;;;;;0.40;0.30;;;;;;;23.01;88.83;100406.69;5036650;28;20477;-81
2021/07/10 08:48:16;;;;;;;2.10;1.70;;;;;;;22.94;88.69;100377.50;5023423;28;20460;-81
2021/07/10 08:50:43;;;;;;;0.50;0.23;;;;;;;23.09;89.83;100399.81;5035976;28;20431;-81
2021/07/10 08:53:10;;;;;;;0.50;0.40;;;;;;;23.33;90.72;100395.16;5036408;28;20459;-81
2021/07/10 08:55:37;;;;;;;0.50;0.40;;;;;;;23.47;90.01;100392.22;5052478;28;21003;-81
2021/07/10 08:58:04;;;;;;;2.10;2.00;;;;;;;22.98;90.36;100400.66;5037837;28;20776;-81
2021/07/10 09:00:39;;;;;;;0.70;0.70;;;;;;;22.80;91.31;100394.81;5037509;28;20437;-81
2021/07/10 09:03:07;;;;;;;0.47;0.27;;;;;;;22.70;90.33;100397.34;5037577;28;20414;-81
2021/07/10 09:05:35;;;;;;;0.83;0.80;;;;;;;22.98;88.92;100393.38;5036154;28;20499;-81
2021/07/10 09:08:23;;;;;;;0.50;0.40;;;;;;;22.77;89.20;100384.22;5036399;28;20467;-81
2021/07/10 09:11:02;;;;;;;0.47;0.30;;;;;;;22.97;89.61;100382.66;5052953;28;20425;-81
2021/07/10 09:13:32;;;;;;;0.40;0.30;;;;;;;23.75;88.04;100374.56;5037723;28;20852;-81
2021/07/10 09:16:04;;;;;;;25.13;2.20;;;;;;;23.60;85.08;100378.53;5035961;28;20495;-81
2021/07/10 09:18:36;;;;;;;0.90;0.90;;;;;;;23.83;83.01;100363.06;5037702;28;20524;-81
2021/07/10 09:21:03;;;;;;;0.40;0.30;;;;;;;23.46;83.74;100365.19;5035610;28;20456;-81
2021/07/10 09:23:38;;;;;;;0.50;0.30;;;;;;;24.10;82.76;100362.63;5040914;28;20451;-81
2021/07/10 09:26:25;;;;;;;2.07;2.00;;;;;;;24.82;81.03;100362.81;5044425;28;20465;-81
2021/07/10 09:29:16;;;;;;;0.40;0.20;;;;;;;23.66;82.92;100369.88;5023315;28;20430;-81
2021/07/10 09:31:44;;;;;;;0.40;0.30;;;;;;;23.60;80.96;100359.53;5035176;28;20430;-81
2021/07/10 09:34:13;;;;;;;0.40;0.23;;;;;;;24.16;79.97;100360.28;5036660;28;20896;-81
2021/07/10 09:36:56;;;;;;;0.50;0.30;;;;;;;23.75;79.37;100366.44;5035618;28;20430;-81
2021/07/10 09:39:25;;;;;;;0.50;0.30;;;;;;;24.05;78.42;100362.16;5036329;28;20478;-81
2021/07/10 09:41:53;;;;;;;0.40;0.30;;;;;;;24.36;77.77;100355.88;5036095;28;20455;-81
2021/07/10 09:44:20;;;;;;;0.40;0.23;;;;;;;24.40;79.74;100345.63;5034734;28;20442;-81
2021/07/10 09:46:46;;;;;;;0.67;0.67;;;;;;;24.23;79.90;100345.16;5051206;28;20538;-81
2021/07/10 09:49:33;;;;;;;0.50;0.30;;;;;;;25.01;78.98;100341.19;5036457;28;20468;-81
2021/07/10 09:52:02;;;;;;;0.40;0.30;;;;;;;24.27;76.93;100334.06;5036097;28;20440;-81
2021/07/10 09:54:40;;;;;;;0.40;0.30;;;;;;;23.86;78.39;100336.53;5034460;28;20441;-81
2021/07/10 09:57:14;;;;;;;0.50;0.30;;;;;;;24.27;80.17;100329.47;5035966;28;20849;-81
2021/07/10 09:59:44;;;;;;;1.43;0.93;;;;;;;24.51;76.16;100318.38;5029912;28;20500;-81
2021/07/10 10:02:13;;;;;;;0.40;0.30;;;;;;;24.43;76.97;100320.91;5034123;28;20441;-81
2021/07/10 10:04:40;;;;;;;0.50;0.37;;;;;;;24.83;75.09;100317.47;5035107;28;20527;-81
2021/07/10 10:07:14;;;;;;;0.50;0.30;;;;;;;24.65;75.52;100322.63;5034000;28;20500;-81
2021/07/10 10:09:41;;;;;;;0.50;0.40;;;;;;;24.87;74.26;100318.91;5034836;28;20951;-81
2021/07/10 10:12:12;;;;;;;1.00;0.97;;;;;;;24.81;73.22;100307.56;5033794;28;20459;-81
2021/07/10 10:14:51;;;;;;;0.40;0.27;;;;;;;24.77;75.23;100307.97;5035646;28;20510;-81
2021/07/10 10:17:22;;;;;;;0.40;0.30;;;;;;;25.07;73.53;100309.84;5056837;28;20425;-81
2021/07/10 10:19:49;;;;;;;0.40;0.20;;;;;;;24.87;74.58;100308.88;5041417;28;20456;-81
2021/07/10 10:22:19;;;;;;;0.40;0.30;;;;;;;24.88;73.55;100307.88;5035518;28;20467;-81
2021/07/10 10:24:50;;;;;;;0.53;0.53;;;;;;;25.01;72.48;100302.25;5045598;28;20429;-81
2021/07/10 10:27:17;;;;;;;0.60;0.40;;;;;;;24.48;72.25;100307.78;5049187;28;20472;-80
2021/07/10 10:29:45;;;;;;;0.40;0.30;;;;;;;25.07;72.83;100312.59;5037802;28;20514;-81
2021/07/10 10:32:12;;;;;;;0.50;0.30;;;;;;;24.73;71.54;100307.38;5045804;28;20956;-81
2021/07/10 10:34:40;;;;;;;0.50;0.37;;;;;;;24.73;72.26;100309.22;5033742;28;20822;-81
2021/07/10 10:37:09;;;;;;;0.40;0.20;;;;;;;25.05;71.09;100298.25;5049242;28;20539;-81
2021/07/10 10:39:37;;;;;;;0.70;0.70;;;;;;;25.08;65.66;100308.84;5034397;28;20430;-81
2021/07/10 10:42:08;;;;;;;0.40;0.30;;;;;;;25.08;64.67;100301.59;5033946;28;20493;-80
2021/07/10 10:44:42;;;;;;;0.50;0.30;;;;;;;26.05;64.85;100299.13;5031604;28;20482;-81
2021/07/10 10:47:11;;;;;;;0.97;0.90;;;;;;;25.73;62.63;100293.06;5032627;28;21152;-81
2021/07/10 10:49:50;;;;;;;7.70;1.63;;;;;;;26.63;62.57;100290.06;5031489;28;20444;-81
2021/07/10 10:52:34;;;;;;;0.40;0.30;;;;;;;26.95;60.12;100290.53;5031665;28;20452;-81
2021/07/10 10:55:09;;;;;;;0.50;0.43;;;;;;;26.79;60.40;100291.16;5048113;28;20460;-81
2021/07/10 10:57:49;;;;;;;0.40;0.30;;;;;;;26.20;61.10;100288.66;5048382;28;20456;-81
2021/07/10 11:00:23;;;;;;;1.77;1.67;;;;;;;26.73;59.66;100289.03;5032127;28;20498;-81
2021/07/10 11:02:56;;;;;;;0.50;0.30;;;;;;;26.91;62.27;100288.25;5034265;28;20467;-81
2021/07/10 11:05:25;;;;;;;0.50;0.30;;;;;;;26.27;60.42;100287.91;5034806;28;20470;-81
2021/07/10 11:08:17;;;;;;;0.83;0.77;;;;;;;25.91;62.05;100281.34;5031922;28;20459;-81
2021/07/10 11:10:53;;;;;;;0.50;0.30;;;;;;;25.92;59.50;100274.03;5035854;28;20451;-81
2021/07/10 11:13:40;;;;;;;0.90;0.90;;;;;;;26.53;57.81;100276.44;5028481;28;20448;-81
2021/07/10 11:16:06;;;;;;;0.40;0.30;;;;;;;25.75;61.68;100277.44;5036697;28;20494;-81
2021/07/10 11:18:45;;;;;;;0.40;0.30;;;;;;;25.25;59.46;100272.00;5036056;28;20459;-81
2021/07/10 11:21:35;;;;;;;1.47;1.47;;;;;;;24.61;61.48;100259.50;5035116;28;20545;-80
2021/07/10 11:24:19;;;;;;;0.50;0.30;;;;;;;24.99;63.00;100260.69;5043542;28;20478;-81